sensor_id;sensor_type;location;lat;lon;timestamp;temperature;humidity
28761;DHT22;15917;50.014;8.352;2023-07-20T00:01:17;20.60;99.90
28761;DHT22;15917;50.014;8.352;2023-07-20T00:03:43;20.60;99.90
28761;DHT22;15917;50.014;8.352;2023-07-20T00:06:09;20.60;99.90
28761;DHT22;15917;50.014;8.352;2023-07-20T00:08:34;20.60;99.90
28761;DHT22;15917;50.014;8.352;2023-07-20T00:11:00;20.60;99.90
28761;DHT22;15917;50.014;8.352;2023-07-20T00:13:25;20.60;99.90
28761;DHT22;15917;50.014;8.352;2023-07-20T00:15:51;20.50;99.90
28761;DHT22;15917;50.014;8.352;2023-07-20T00:18:17;20.50;99.90
28761;DHT22;15917;50.014;8.352;2023-07-20T00:20:47;20.40;99.90
28761;DHT22;15917;50.014;8.352;2023-07-20T00:23:12;20.40;99.90
28761;DHT22;15917;50.014;8.352;2023-07-20T00:25:38;20.40;99.90
28761;DHT22;15917;50.014;8.352;2023-07-20T00:28:04;20.30;99.90
28761;DHT22;15917;50.014;8.352;2023-07-20T00:30:29;20.30;99.90
28761;DHT22;15917;50.014;8.352;2023-07-20T00:32:55;20.40;99.90
28761;DHT22;15917;50.014;8.352;2023-07-20T00:35:22;20.30;99.90
28761;DHT22;15917;50.014;8.352;2023-07-20T00:37:47;20.30;99.90
28761;DHT22;15917;50.014;8.352;2023-07-20T00:40:13;20.30;99.90
28761;DHT22;15917;50.014;8.352;2023-07-20T00:42:38;20.30;99.90
28761;DHT22;15917;50.014;8.352;2023-07-20T00:45:05;20.20;99.90
28761;DHT22;15917;50.014;8.352;2023-07-20T00:47:31;20.20;99.90
28761;DHT22;15917;50.014;8.352;2023-07-20T00:49:58;20.10;99.90
28761;DHT22;15917;50.014;8.352;2023-07-20T00:52:25;20.10;99.90
28761;DHT22;15917;50.014;8.352;2023-07-20T00:54:52;20.10;99.90
28761;DHT22;15917;50.014;8.352;2023-07-20T00:57:22;20.00;99.90
28761;DHT22;15917;50.014;8.352;2023-07-20T00:59:49;20.00;99.90
28761;DHT22;15917;50.014;8.352;2023-07-20T01:02:15;20.10;99.90
28761;DHT22;15917;50.014;8.352;2023-07-20T01:04:40;20.00;99.90
28761;DHT22;15917;50.014;8.352;2023-07-20T01:07:23;20.10;99.90
28761;DHT22;15917;50.014;8.352;2023-07-20T01:10:13;20.00;99.90
28761;DHT22;15917;50.014;8.352;2023-07-20T01:12:43;19.90;99.90
28761;DHT22;15917;50.014;8.352;2023-07-20T01:15:12;19.90;99.90
28761;DHT22;15917;50.014;8.352;2023-07-20T01:17:38;19.90;99.90
28761;DHT22;15917;50.014;8.352;2023-07-20T01:20:06;19.90;99.90
28761;DHT22;15917;50.014;8.352;2023-07-20T01:23:01;19.80;99.90
28761;DHT22;15917;50.014;8.352;2023-07-20T01:26:02;19.80;99.90
28761;DHT22;15917;50.014;8.352;2023-07-20T01:28:35;19.80;99.90
28761;DHT22;15917;50.014;8.352;2023-07-20T01:31:27;19.70;99.90
28761;DHT22;15917;50.014;8.352;2023-07-20T01:33:57;19.70;99.90
28761;DHT22;15917;50.014;8.352;2023-07-20T01:36:24;19.70;99.90
28761;DHT22;15917;50.014;8.352;2023-07-20T01:38:52;19.60;99.90
28761;DHT22;15917;50.014;8.352;2023-07-20T01:41:18;19.60;99.90
28761;DHT22;15917;50.014;8.352;2023-07-20T01:43:44;19.50;99.90
28761;DHT22;15917;50.014;8.352;2023-07-20T01:46:09;19.50;99.90
28761;DHT22;15917;50.014;8.352;2023-07-20T01:48:35;19.40;99.90
28761;DHT22;15917;50.014;8.352;2023-07-20T01:51:01;19.40;99.90
28761;DHT22;15917;50.014;8.352;2023-07-20T01:53:27;19.30;99.90
28761;DHT22;15917;50.014;8.352;2023-07-20T01:55:53;19.30;99.90
28761;DHT22;15917;50.014;8.352;2023-07-20T01:58:20;19.30;99.90
28761;DHT22;15917;50.014;8.352;2023-07-20T02:00:45;19.20;99.90
28761;DHT22;15917;50.014;8.352;2023-07-20T02:03:11;19.20;99.90
28761;DHT22;15917;50.014;8.352;2023-07-20T02:05:37;19.20;99.90
28761;DHT22;15917;50.014;8.352;2023-07-20T02:08:03;19.20;99.90
28761;DHT22;15917;50.014;8.352;2023-07-20T02:10:29;19.20;99.90
28761;DHT22;15917;50.014;8.352;2023-07-20T02:12:54;19.20;99.90
28761;DHT22;15917;50.014;8.352;2023-07-20T02:15:20;19.10;99.90
28761;DHT22;15917;50.014;8.352;2023-07-20T02:17:46;19.10;99.90
28761;DHT22;15917;50.014;8.352;2023-07-20T02:20:12;19.10;99.90
28761;DHT22;15917;50.014;8.352;2023-07-20T02:22:38;19.00;99.90
28761;DHT22;15917;50.014;8.352;2023-07-20T02:25:07;19.00;99.90
28761;DHT22;15917;50.014;8.352;2023-07-20T02:27:34;19.00;99.90
28761;DHT22;15917;50.014;8.352;2023-07-20T02:30:00;19.00;99.90
28761;DHT22;15917;50.014;8.352;2023-07-20T02:32:26;19.00;99.90
28761;DHT22;15917;50.014;8.352;2023-07-20T02:34:52;19.00;99.90
28761;DHT22;15917;50.014;8.352;2023-07-20T02:37:18;19.00;99.90
28761;DHT22;15917;50.014;8.352;2023-07-20T02:39:43;19.00;99.90
28761;DHT22;15917;50.014;8.352;2023-07-20T02:42:09;19.00;99.90
28761;DHT22;15917;50.014;8.352;2023-07-20T02:44:35;19.00;99.90
28761;DHT22;15917;50.014;8.352;2023-07-20T02:47:01;19.00;99.90
28761;DHT22;15917;50.014;8.352;2023-07-20T02:49:28;19.00;99.90
28761;DHT22;15917;50.014;8.352;2023-07-20T02:51:53;18.90;99.90
28761;DHT22;15917;50.014;8.352;2023-07-20T02:54:20;18.90;99.90
28761;DHT22;15917;50.014;8.352;2023-07-20T02:56:46;18.80;99.90
28761;DHT22;15917;50.014;8.352;2023-07-20T02:59:11;18.90;99.90
28761;DHT22;15917;50.014;8.352;2023-07-20T03:01:37;18.80;99.90
28761;DHT22;15917;50.014;8.352;2023-07-20T03:04:03;18.80;99.90
28761;DHT22;15917;50.014;8.352;2023-07-20T03:06:29;18.70;99.90
28761;DHT22;15917;50.014;8.352;2023-07-20T03:08:55;18.70;99.90
28761;DHT22;15917;50.014;8.352;2023-07-20T03:11:21;18.70;99.90
28761;DHT22;15917;50.014;8.352;2023-07-20T03:13:47;18.70;99.90
28761;DHT22;15917;50.014;8.352;2023-07-20T03:16:15;18.70;99.90
28761;DHT22;15917;50.014;8.352;2023-07-20T03:18:43;18.80;99.90
28761;DHT22;15917;50.014;8.352;2023-07-20T03:21:09;18.70;99.90
28761;DHT22;15917;50.014;8.352;2023-07-20T03:23:39;18.60;99.90
28761;DHT22;15917;50.014;8.352;2023-07-20T03:26:05;18.60;99.90
28761;DHT22;15917;50.014;8.352;2023-07-20T03:28:34;18.60;99.90
28761;DHT22;15917;50.014;8.352;2023-07-20T03:31:00;18.60;99.90
28761;DHT22;15917;50.014;8.352;2023-07-20T03:33:29;18.60;99.90
28761;DHT22;15917;50.014;8.352;2023-07-20T03:35:57;18.60;99.90
28761;DHT22;15917;50.014;8.352;2023-07-20T03:38:24;18.60;99.90
28761;DHT22;15917;50.014;8.352;2023-07-20T03:40:54;18.60;99.90
28761;DHT22;15917;50.014;8.352;2023-07-20T03:43:21;18.50;99.90
28761;DHT22;15917;50.014;8.352;2023-07-20T03:45:47;18.50;99.90
28761;DHT22;15917;50.014;8.352;2023-07-20T03:48:22;18.50;99.90
28761;DHT22;15917;50.014;8.352;2023-07-20T03:50:49;18.50;99.90
28761;DHT22;15917;50.014;8.352;2023-07-20T03:53:15;18.50;99.90
28761;DHT22;15917;50.014;8.352;2023-07-20T03:55:48;18.50;99.90
28761;DHT22;15917;50.014;8.352;2023-07-20T03:58:15;18.40;99.90
28761;DHT22;15917;50.014;8.352;2023-07-20T04:00:50;18.40;99.90
28761;DHT22;15917;50.014;8.352;2023-07-20T04:03:17;18.40;99.90
28761;DHT22;15917;50.014;8.352;2023-07-20T04:05:43;18.40;99.90
28761;DHT22;15917;50.014;8.352;2023-07-20T04:08:10;18.40;99.90
28761;DHT22;15917;50.014;8.352;2023-07-20T04:10:39;18.40;99.90
28761;DHT22;15917;50.014;8.352;2023-07-20T04:13:05;18.40;99.90
28761;DHT22;15917;50.014;8.352;2023-07-20T04:15:31;18.40;99.90
28761;DHT22;15917;50.014;8.352;2023-07-20T04:17:57;18.40;99.90
28761;DHT22;15917;50.014;8.352;2023-07-20T04:20:23;18.40;99.90
28761;DHT22;15917;50.014;8.352;2023-07-20T04:22:49;18.40;99.90
28761;DHT22;15917;50.014;8.352;2023-07-20T04:25:16;18.40;99.90
28761;DHT22;15917;50.014;8.352;2023-07-20T04:27:42;18.30;99.90
28761;DHT22;15917;50.014;8.352;2023-07-20T04:30:08;18.40;99.90
28761;DHT22;15917;50.014;8.352;2023-07-20T04:32:34;18.40;99.90
28761;DHT22;15917;50.014;8.352;2023-07-20T04:35:06;18.40;99.90
28761;DHT22;15917;50.014;8.352;2023-07-20T04:37:34;18.40;99.90
28761;DHT22;15917;50.014;8.352;2023-07-20T04:40:01;18.40;99.90
28761;DHT22;15917;50.014;8.352;2023-07-20T04:42:27;18.60;99.90
28761;DHT22;15917;50.014;8.352;2023-07-20T04:44:53;18.60;99.90
28761;DHT22;15917;50.014;8.352;2023-07-20T04:47:19;18.60;99.90
28761;DHT22;15917;50.014;8.352;2023-07-20T04:49:45;18.60;99.90
28761;DHT22;15917;50.014;8.352;2023-07-20T04:52:11;18.60;99.90
28761;DHT22;15917;50.014;8.352;2023-07-20T04:54:36;18.60;99.90
28761;DHT22;15917;50.014;8.352;2023-07-20T04:57:03;18.50;99.90
28761;DHT22;15917;50.014;8.352;2023-07-20T04:59:30;18.50;99.90
28761;DHT22;15917;50.014;8.352;2023-07-20T05:01:55;18.40;99.90
28761;DHT22;15917;50.014;8.352;2023-07-20T05:04:21;18.40;99.90
28761;DHT22;15917;50.014;8.352;2023-07-20T05:06:47;18.40;99.90
28761;DHT22;15917;50.014;8.352;2023-07-20T05:09:13;18.40;99.90
28761;DHT22;15917;50.014;8.352;2023-07-20T05:11:39;18.50;99.90
28761;DHT22;15917;50.014;8.352;2023-07-20T05:14:04;18.60;99.90
28761;DHT22;15917;50.014;8.352;2023-07-20T05:16:30;18.90;99.90
28761;DHT22;15917;50.014;8.352;2023-07-20T05:19:01;19.20;99.90
28761;DHT22;15917;50.014;8.352;2023-07-20T05:21:27;19.40;99.90
28761;DHT22;15917;50.014;8.352;2023-07-20T05:23:52;19.70;99.90
28761;DHT22;15917;50.014;8.352;2023-07-20T05:26:18;19.90;99.90
28761;DHT22;15917;50.014;8.352;2023-07-20T05:28:43;20.00;99.90
28761;DHT22;15917;50.014;8.352;2023-07-20T05:31:09;20.00;99.90
28761;DHT22;15917;50.014;8.352;2023-07-20T05:33:34;20.20;99.90
28761;DHT22;15917;50.014;8.352;2023-07-20T05:36:00;20.30;99.90
28761;DHT22;15917;50.014;8.352;2023-07-20T05:38:25;20.30;99.90
28761;DHT22;15917;50.014;8.352;2023-07-20T05:40:51;20.50;99.90
28761;DHT22;15917;50.014;8.352;2023-07-20T05:43:17;20.50;99.90
28761;DHT22;15917;50.014;8.352;2023-07-20T05:45:43;20.50;99.90
28761;DHT22;15917;50.014;8.352;2023-07-20T05:48:10;20.70;99.90
28761;DHT22;15917;50.014;8.352;2023-07-20T05:50:37;20.70;99.90
28761;DHT22;15917;50.014;8.352;2023-07-20T05:53:03;20.60;99.90
28761;DHT22;15917;50.014;8.352;2023-07-20T05:55:28;20.60;99.90
28761;DHT22;15917;50.014;8.352;2023-07-20T05:57:54;20.70;99.90
28761;DHT22;15917;50.014;8.352;2023-07-20T06:00:21;20.80;99.90
28761;DHT22;15917;50.014;8.352;2023-07-20T06:02:52;20.90;99.90
28761;DHT22;15917;50.014;8.352;2023-07-20T06:05:19;21.10;99.90
28761;DHT22;15917;50.014;8.352;2023-07-20T06:07:46;21.10;99.90
28761;DHT22;15917;50.014;8.352;2023-07-20T06:10:12;21.20;99.90
28761;DHT22;15917;50.014;8.352;2023-07-20T06:12:37;21.20;99.90
28761;DHT22;15917;50.014;8.352;2023-07-20T06:15:04;21.30;99.90
28761;DHT22;15917;50.014;8.352;2023-07-20T06:17:30;21.40;99.90
28761;DHT22;15917;50.014;8.352;2023-07-20T06:19:56;21.50;99.90
28761;DHT22;15917;50.014;8.352;2023-07-20T06:22:21;21.60;99.90
28761;DHT22;15917;50.014;8.352;2023-07-20T06:24:47;21.50;99.90
28761;DHT22;15917;50.014;8.352;2023-07-20T06:27:12;21.60;99.90
28761;DHT22;15917;50.014;8.352;2023-07-20T06:29:38;21.80;99.90
28761;DHT22;15917;50.014;8.352;2023-07-20T06:32:04;21.60;99.90
28761;DHT22;15917;50.014;8.352;2023-07-20T06:34:30;21.50;99.90
28761;DHT22;15917;50.014;8.352;2023-07-20T06:36:56;21.20;99.90
28761;DHT22;15917;50.014;8.352;2023-07-20T06:39:22;21.10;99.90
28761;DHT22;15917;50.014;8.352;2023-07-20T06:41:48;20.90;99.90
28761;DHT22;15917;50.014;8.352;2023-07-20T06:44:14;20.70;99.90
28761;DHT22;15917;50.014;8.352;2023-07-20T06:46:39;20.70;99.90
28761;DHT22;15917;50.014;8.352;2023-07-20T06:49:08;20.70;99.90
28761;DHT22;15917;50.014;8.352;2023-07-20T06:51:34;20.70;99.90
28761;DHT22;15917;50.014;8.352;2023-07-20T06:53:59;20.80;99.90
28761;DHT22;15917;50.014;8.352;2023-07-20T06:56:25;20.80;99.90
28761;DHT22;15917;50.014;8.352;2023-07-20T06:58:50;20.90;99.90
28761;DHT22;15917;50.014;8.352;2023-07-20T07:01:16;21.00;99.90
28761;DHT22;15917;50.014;8.352;2023-07-20T07:03:42;21.00;99.90
28761;DHT22;15917;50.014;8.352;2023-07-20T07:06:09;21.10;99.90
28761;DHT22;15917;50.014;8.352;2023-07-20T07:08:35;21.10;99.90
28761;DHT22;15917;50.014;8.352;2023-07-20T07:11:01;21.10;99.90
28761;DHT22;15917;50.014;8.352;2023-07-20T07:13:27;21.10;99.90
28761;DHT22;15917;50.014;8.352;2023-07-20T07:15:53;21.10;99.90
28761;DHT22;15917;50.014;8.352;2023-07-20T07:18:19;21.10;99.90
28761;DHT22;15917;50.014;8.352;2023-07-20T07:20:52;21.10;99.90
28761;DHT22;15917;50.014;8.352;2023-07-20T07:23:18;20.90;99.90
28761;DHT22;15917;50.014;8.352;2023-07-20T07:25:44;21.00;99.90
28761;DHT22;15917;50.014;8.352;2023-07-20T07:28:10;20.90;99.90
28761;DHT22;15917;50.014;8.352;2023-07-20T07:30:36;21.00;99.90
28761;DHT22;15917;50.014;8.352;2023-07-20T07:33:01;21.20;99.90
28761;DHT22;15917;50.014;8.352;2023-07-20T07:35:27;21.30;99.90
28761;DHT22;15917;50.014;8.352;2023-07-20T07:37:52;21.50;99.90
28761;DHT22;15917;50.014;8.352;2023-07-20T07:40:18;21.60;99.90
28761;DHT22;15917;50.014;8.352;2023-07-20T07:42:44;21.60;99.90
28761;DHT22;15917;50.014;8.352;2023-07-20T07:45:09;21.60;99.90
28761;DHT22;15917;50.014;8.352;2023-07-20T07:47:35;21.60;99.90
28761;DHT22;15917;50.014;8.352;2023-07-20T07:50:01;21.70;99.90
28761;DHT22;15917;50.014;8.352;2023-07-20T07:52:27;21.90;99.90
28761;DHT22;15917;50.014;8.352;2023-07-20T07:54:53;22.00;99.90
28761;DHT22;15917;50.014;8.352;2023-07-20T07:57:18;22.10;99.90
28761;DHT22;15917;50.014;8.352;2023-07-20T07:59:44;22.10;99.90
28761;DHT22;15917;50.014;8.352;2023-07-20T08:02:10;22.10;99.90
28761;DHT22;15917;50.014;8.352;2023-07-20T08:04:35;22.00;99.90
28761;DHT22;15917;50.014;8.352;2023-07-20T08:07:04;21.80;99.90
28761;DHT22;15917;50.014;8.352;2023-07-20T08:09:30;21.80;99.90
28761;DHT22;15917;50.014;8.352;2023-07-20T08:11:55;22.10;99.90
28761;DHT22;15917;50.014;8.352;2023-07-20T08:14:21;22.30;99.90
28761;DHT22;15917;50.014;8.352;2023-07-20T08:16:47;22.40;99.90
28761;DHT22;15917;50.014;8.352;2023-07-20T08:19:13;22.50;99.90
28761;DHT22;15917;50.014;8.352;2023-07-20T08:21:38;22.40;99.90
28761;DHT22;15917;50.014;8.352;2023-07-20T08:24:04;22.40;99.90
28761;DHT22;15917;50.014;8.352;2023-07-20T08:26:30;22.30;99.90
28761;DHT22;15917;50.014;8.352;2023-07-20T08:28:55;22.20;99.90
28761;DHT22;15917;50.014;8.352;2023-07-20T08:31:21;22.20;99.90
28761;DHT22;15917;50.014;8.352;2023-07-20T08:33:47;22.20;99.90
28761;DHT22;15917;50.014;8.352;2023-07-20T08:36:14;22.20;99.90
28761;DHT22;15917;50.014;8.352;2023-07-20T08:38:39;22.50;99.90
28761;DHT22;15917;50.014;8.352;2023-07-20T08:41:05;22.60;99.90
28761;DHT22;15917;50.014;8.352;2023-07-20T08:43:31;22.50;99.90
28761;DHT22;15917;50.014;8.352;2023-07-20T08:45:58;22.40;99.90
28761;DHT22;15917;50.014;8.352;2023-07-20T08:48:26;22.40;99.90
28761;DHT22;15917;50.014;8.352;2023-07-20T08:50:53;22.40;99.90
28761;DHT22;15917;50.014;8.352;2023-07-20T08:53:22;22.50;99.90
28761;DHT22;15917;50.014;8.352;2023-07-20T08:55:50;22.70;99.90
28761;DHT22;15917;50.014;8.352;2023-07-20T08:58:18;22.70;99.90
28761;DHT22;15917;50.014;8.352;2023-07-20T09:00:44;22.50;99.90
28761;DHT22;15917;50.014;8.352;2023-07-20T09:03:11;22.50;99.90
28761;DHT22;15917;50.014;8.352;2023-07-20T09:05:37;22.50;99.90
28761;DHT22;15917;50.014;8.352;2023-07-20T09:08:04;22.50;99.90
28761;DHT22;15917;50.014;8.352;2023-07-20T09:10:30;22.60;99.90
28761;DHT22;15917;50.014;8.352;2023-07-20T09:12:56;22.90;99.90
28761;DHT22;15917;50.014;8.352;2023-07-20T09:15:22;23.10;99.90
28761;DHT22;15917;50.014;8.352;2023-07-20T09:17:50;23.20;99.90
28761;DHT22;15917;50.014;8.352;2023-07-20T09:20:17;23.40;99.90
28761;DHT22;15917;50.014;8.352;2023-07-20T09:22:43;23.40;99.90
28761;DHT22;15917;50.014;8.352;2023-07-20T09:25:14;23.30;99.90
28761;DHT22;15917;50.014;8.352;2023-07-20T09:27:47;23.30;99.90
28761;DHT22;15917;50.014;8.352;2023-07-20T09:30:15;23.40;99.90
28761;DHT22;15917;50.014;8.352;2023-07-20T09:32:48;23.80;99.90
28761;DHT22;15917;50.014;8.352;2023-07-20T09:35:20;23.90;99.90
28761;DHT22;15917;50.014;8.352;2023-07-20T09:37:49;24.10;99.90
28761;DHT22;15917;50.014;8.352;2023-07-20T09:40:18;24.40;99.90
28761;DHT22;15917;50.014;8.352;2023-07-20T09:42:44;24.50;99.90
28761;DHT22;15917;50.014;8.352;2023-07-20T09:45:10;24.30;99.90
28761;DHT22;15917;50.014;8.352;2023-07-20T09:47:37;23.90;99.90
28761;DHT22;15917;50.014;8.352;2023-07-20T09:50:07;23.80;99.90
28761;DHT22;15917;50.014;8.352;2023-07-20T09:52:38;23.60;99.90
28761;DHT22;15917;50.014;8.352;2023-07-20T09:55:08;23.50;99.90
28761;DHT22;15917;50.014;8.352;2023-07-20T09:57:35;23.40;99.90
28761;DHT22;15917;50.014;8.352;2023-07-20T10:00:03;23.40;99.90
28761;DHT22;15917;50.014;8.352;2023-07-20T10:02:34;23.40;99.90
28761;DHT22;15917;50.014;8.352;2023-07-20T10:05:03;23.30;99.90
28761;DHT22;15917;50.014;8.352;2023-07-20T10:07:36;23.00;99.90
28761;DHT22;15917;50.014;8.352;2023-07-20T10:10:06;22.90;99.90
28761;DHT22;15917;50.014;8.352;2023-07-20T10:12:37;22.80;99.90
28761;DHT22;15917;50.014;8.352;2023-07-20T10:15:09;22.80;99.90
28761;DHT22;15917;50.014;8.352;2023-07-20T10:17:38;22.70;99.90
28761;DHT22;15917;50.014;8.352;2023-07-20T10:20:06;22.70;99.90
28761;DHT22;15917;50.014;8.352;2023-07-20T10:22:36;22.70;99.90
28761;DHT22;15917;50.014;8.352;2023-07-20T10:25:02;22.80;99.90
28761;DHT22;15917;50.014;8.352;2023-07-20T10:27:30;22.90;99.90
28761;DHT22;15917;50.014;8.352;2023-07-20T10:29:56;23.10;99.90
28761;DHT22;15917;50.014;8.352;2023-07-20T10:32:24;23.40;99.90
28761;DHT22;15917;50.014;8.352;2023-07-20T10:34:51;23.50;99.90
28761;DHT22;15917;50.014;8.352;2023-07-20T10:42:58;23.30;99.90
28761;DHT22;15917;50.014;8.352;2023-07-20T10:45:41;23.20;99.90
28761;DHT22;15917;50.014;8.352;2023-07-20T10:48:21;23.30;99.90
28761;DHT22;15917;50.014;8.352;2023-07-20T10:51:20;23.60;99.90
28761;DHT22;15917;50.014;8.352;2023-07-20T10:53:48;24.20;99.90
28761;DHT22;15917;50.014;8.352;2023-07-20T10:56:21;24.70;99.90
28761;DHT22;15917;50.014;8.352;2023-07-20T10:58:47;24.70;99.90
28761;DHT22;15917;50.014;8.352;2023-07-20T11:01:15;24.60;99.90
28761;DHT22;15917;50.014;8.352;2023-07-20T11:03:41;24.30;99.90
28761;DHT22;15917;50.014;8.352;2023-07-20T11:09:11;24.20;99.90
28761;DHT22;15917;50.014;8.352;2023-07-20T11:11:38;24.00;99.90
28761;DHT22;15917;50.014;8.352;2023-07-20T11:14:09;23.90;99.90
28761;DHT22;15917;50.014;8.352;2023-07-20T11:16:43;23.80;99.90
28761;DHT22;15917;50.014;8.352;2023-07-20T11:19:25;23.60;99.90
28761;DHT22;15917;50.014;8.352;2023-07-20T11:21:53;23.50;99.90
28761;DHT22;15917;50.014;8.352;2023-07-20T11:24:19;23.30;99.90
28761;DHT22;15917;50.014;8.352;2023-07-20T11:26:51;23.40;99.90
28761;DHT22;15917;50.014;8.352;2023-07-20T11:29:21;23.50;99.90
28761;DHT22;15917;50.014;8.352;2023-07-20T11:31:49;23.60;99.90
28761;DHT22;15917;50.014;8.352;2023-07-20T11:34:20;23.90;99.90
28761;DHT22;15917;50.014;8.352;2023-07-20T11:36:51;24.30;99.90
28761;DHT22;15917;50.014;8.352;2023-07-20T11:39:21;24.90;99.90
28761;DHT22;15917;50.014;8.352;2023-07-20T11:41:49;25.20;99.90
28761;DHT22;15917;50.014;8.352;2023-07-20T11:44:19;25.50;99.90
28761;DHT22;15917;50.014;8.352;2023-07-20T11:46:46;25.80;99.20
28761;DHT22;15917;50.014;8.352;2023-07-20T11:49:12;25.80;99.00
28761;DHT22;15917;50.014;8.352;2023-07-20T11:51:39;25.50;98.70
28761;DHT22;15917;50.014;8.352;2023-07-20T11:54:06;25.40;98.90
28761;DHT22;15917;50.014;8.352;2023-07-20T11:56:32;25.30;99.70
28761;DHT22;15917;50.014;8.352;2023-07-20T11:58:58;25.40;98.60
28761;DHT22;15917;50.014;8.352;2023-07-20T12:01:27;25.40;99.30
28761;DHT22;15917;50.014;8.352;2023-07-20T12:04:00;25.60;98.50
28761;DHT22;15917;50.014;8.352;2023-07-20T12:06:28;25.80;98.00
28761;DHT22;15917;50.014;8.352;2023-07-20T12:08:56;26.10;98.10
28761;DHT22;15917;50.014;8.352;2023-07-20T12:11:51;26.40;96.60
28761;DHT22;15917;50.014;8.352;2023-07-20T12:14:17;26.50;95.60
28761;DHT22;15917;50.014;8.352;2023-07-20T12:16:43;26.30;96.10
28761;DHT22;15917;50.014;8.352;2023-07-20T12:19:12;26.00;96.50
28761;DHT22;15917;50.014;8.352;2023-07-20T12:21:40;25.80;96.20
28761;DHT22;15917;50.014;8.352;2023-07-20T12:24:07;25.70;96.40
28761;DHT22;15917;50.014;8.352;2023-07-20T12:26:34;25.60;97.40
28761;DHT22;15917;50.014;8.352;2023-07-20T12:29:00;25.00;97.80
28761;DHT22;15917;50.014;8.352;2023-07-20T12:31:27;24.70;98.50
28761;DHT22;15917;50.014;8.352;2023-07-20T12:33:54;24.60;98.60
28761;DHT22;15917;50.014;8.352;2023-07-20T12:36:22;24.40;98.70
28761;DHT22;15917;50.014;8.352;2023-07-20T12:38:48;24.40;98.90
28761;DHT22;15917;50.014;8.352;2023-07-20T12:41:14;24.50;99.30
28761;DHT22;15917;50.014;8.352;2023-07-20T12:43:46;24.50;98.90
28761;DHT22;15917;50.014;8.352;2023-07-20T12:46:12;24.50;98.50
28761;DHT22;15917;50.014;8.352;2023-07-20T12:48:39;24.60;98.80
28761;DHT22;15917;50.014;8.352;2023-07-20T12:51:10;24.60;98.20
28761;DHT22;15917;50.014;8.352;2023-07-20T12:53:37;24.80;98.40
28761;DHT22;15917;50.014;8.352;2023-07-20T12:56:03;25.00;98.60
28761;DHT22;15917;50.014;8.352;2023-07-20T12:58:28;25.30;98.10
28761;DHT22;15917;50.014;8.352;2023-07-20T13:00:54;25.80;97.90
28761;DHT22;15917;50.014;8.352;2023-07-20T13:03:20;26.10;96.50
28761;DHT22;15917;50.014;8.352;2023-07-20T13:05:46;26.20;95.80
28761;DHT22;15917;50.014;8.352;2023-07-20T13:08:12;26.10;96.00
28761;DHT22;15917;50.014;8.352;2023-07-20T13:10:38;26.00;95.40
28761;DHT22;15917;50.014;8.352;2023-07-20T13:13:05;26.20;95.10
28761;DHT22;15917;50.014;8.352;2023-07-20T13:15:32;26.60;93.90
28761;DHT22;15917;50.014;8.352;2023-07-20T13:17:58;27.00;93.80
28761;DHT22;15917;50.014;8.352;2023-07-20T13:20:25;27.30;92.50
28761;DHT22;15917;50.014;8.352;2023-07-20T13:22:51;27.30;92.50
28761;DHT22;15917;50.014;8.352;2023-07-20T13:25:16;26.80;92.80
28761;DHT22;15917;50.014;8.352;2023-07-20T13:27:42;26.40;93.20
28761;DHT22;15917;50.014;8.352;2023-07-20T13:30:08;26.20;93.60
28761;DHT22;15917;50.014;8.352;2023-07-20T13:32:37;26.30;94.00
28761;DHT22;15917;50.014;8.352;2023-07-20T13:35:03;26.60;93.50
28761;DHT22;15917;50.014;8.352;2023-07-20T13:37:28;26.90;93.70
28761;DHT22;15917;50.014;8.352;2023-07-20T13:39:54;27.10;92.90
28761;DHT22;15917;50.014;8.352;2023-07-20T13:42:20;27.10;92.50
28761;DHT22;15917;50.014;8.352;2023-07-20T13:44:47;26.90;93.00
28761;DHT22;15917;50.014;8.352;2023-07-20T13:47:13;26.70;92.80
28761;DHT22;15917;50.014;8.352;2023-07-20T13:49:39;26.20;92.60
28761;DHT22;15917;50.014;8.352;2023-07-20T13:52:05;25.80;93.20
28761;DHT22;15917;50.014;8.352;2023-07-20T13:54:31;25.70;93.20
28761;DHT22;15917;50.014;8.352;2023-07-20T13:56:56;25.70;93.20
28761;DHT22;15917;50.014;8.352;2023-07-20T13:59:23;25.50;92.80
28761;DHT22;15917;50.014;8.352;2023-07-20T14:01:48;25.40;93.30
28761;DHT22;15917;50.014;8.352;2023-07-20T14:04:14;25.40;93.80
28761;DHT22;15917;50.014;8.352;2023-07-20T14:06:40;25.30;93.60
28761;DHT22;15917;50.014;8.352;2023-07-20T14:09:06;25.20;93.60
28761;DHT22;15917;50.014;8.352;2023-07-20T14:11:33;25.20;94.00
28761;DHT22;15917;50.014;8.352;2023-07-20T14:13:58;25.20;94.00
28761;DHT22;15917;50.014;8.352;2023-07-20T14:16:24;25.20;94.00
28761;DHT22;15917;50.014;8.352;2023-07-20T14:18:50;25.20;93.70
28761;DHT22;15917;50.014;8.352;2023-07-20T14:21:17;25.10;93.40
28761;DHT22;15917;50.014;8.352;2023-07-20T14:23:51;25.00;93.40
28761;DHT22;15917;50.014;8.352;2023-07-20T14:26:18;24.90;94.00
28761;DHT22;15917;50.014;8.352;2023-07-20T14:28:44;24.90;94.00
28761;DHT22;15917;50.014;8.352;2023-07-20T14:31:10;24.80;94.20
28761;DHT22;15917;50.014;8.352;2023-07-20T14:33:36;24.70;94.00
28761;DHT22;15917;50.014;8.352;2023-07-20T14:36:02;24.60;94.20
28761;DHT22;15917;50.014;8.352;2023-07-20T14:38:30;24.50;94.40
28761;DHT22;15917;50.014;8.352;2023-07-20T14:40:56;24.50;94.50
28761;DHT22;15917;50.014;8.352;2023-07-20T14:43:21;24.30;94.60
28761;DHT22;15917;50.014;8.352;2023-07-20T14:45:47;24.30;94.80
28761;DHT22;15917;50.014;8.352;2023-07-20T14:48:13;24.30;95.00
28761;DHT22;15917;50.014;8.352;2023-07-20T14:50:38;24.20;94.90
28761;DHT22;15917;50.014;8.352;2023-07-20T14:53:04;24.10;94.90
28761;DHT22;15917;50.014;8.352;2023-07-20T14:55:30;24.10;94.70
28761;DHT22;15917;50.014;8.352;2023-07-20T14:57:56;24.10;94.70
28761;DHT22;15917;50.014;8.352;2023-07-20T15:00:21;24.10;94.70
28761;DHT22;15917;50.014;8.352;2023-07-20T15:02:47;24.10;94.60
28761;DHT22;15917;50.014;8.352;2023-07-20T15:05:20;24.10;94.20
28761;DHT22;15917;50.014;8.352;2023-07-20T15:07:46;24.20;93.40
28761;DHT22;15917;50.014;8.352;2023-07-20T15:10:13;24.20;93.30
28761;DHT22;15917;50.014;8.352;2023-07-20T15:12:39;24.40;93.50
28761;DHT22;15917;50.014;8.352;2023-07-20T15:17:32;24.50;93.10
28761;DHT22;15917;50.014;8.352;2023-07-20T15:19:58;24.80;93.20
28761;DHT22;15917;50.014;8.352;2023-07-20T15:22:25;25.40;93.30
28761;DHT22;15917;50.014;8.352;2023-07-20T15:24:51;26.00;92.10
28761;DHT22;15917;50.014;8.352;2023-07-20T15:27:16;26.30;91.20
28761;DHT22;15917;50.014;8.352;2023-07-20T15:29:42;26.70;90.80
28761;DHT22;15917;50.014;8.352;2023-07-20T15:32:09;26.90;90.40
28761;DHT22;15917;50.014;8.352;2023-07-20T15:34:35;27.00;90.10
28761;DHT22;15917;50.014;8.352;2023-07-20T15:37:01;26.80;90.10
28761;DHT22;15917;50.014;8.352;2023-07-20T15:39:27;26.40;90.40
28761;DHT22;15917;50.014;8.352;2023-07-20T15:41:53;26.10;90.90